createdAt,value
2023-03-27T00:01:15.455Z,0.40
2023-03-27T00:03:44.615Z,0.50
2023-03-27T00:06:16.535Z,0.63
2023-03-27T00:08:44.945Z,0.43
2023-03-27T00:11:13.115Z,0.30
2023-03-27T00:13:50.061Z,0.30
2023-03-27T00:16:19.151Z,0.60
2023-03-27T00:18:47.117Z,0.50
2023-03-27T00:21:16.463Z,0.60
2023-03-27T00:23:44.523Z,0.47
2023-03-27T00:26:12.898Z,0.70
2023-03-27T00:28:40.828Z,0.70
2023-03-27T00:31:11.684Z,0.60
2023-03-27T00:33:39.952Z,0.30
2023-03-27T00:36:08.239Z,4.77
2023-03-27T00:38:39.838Z,13.67
2023-03-27T00:41:09.040Z,7.33
2023-03-27T00:43:37.286Z,4.33
2023-03-27T00:46:08.234Z,8.77
2023-03-27T00:48:38.280Z,1.10
2023-03-27T00:51:07.085Z,0.60
2023-03-27T00:53:35.112Z,0.50
2023-03-27T00:56:06.462Z,0.27
2023-03-27T00:58:37.965Z,0.40
2023-03-27T01:01:06.228Z,0.40
2023-03-27T01:03:34.413Z,0.50
2023-03-27T01:06:03.414Z,0.40
2023-03-27T01:08:33.202Z,0.37
2023-03-27T01:11:08.965Z,0.83
2023-03-27T01:13:46.086Z,0.40
2023-03-27T01:16:17.262Z,0.40
2023-03-27T01:18:53.527Z,0.60
2023-03-27T01:21:36.383Z,0.43
2023-03-27T01:24:21.912Z,0.30
2023-03-27T01:27:04.680Z,0.43
2023-03-27T01:29:48.485Z,0.50
2023-03-27T01:32:34.277Z,1.07
2023-03-27T01:35:16.369Z,0.60
2023-03-27T01:37:53.014Z,0.30
2023-03-27T01:40:24.385Z,0.70
2023-03-27T01:42:55.706Z,0.50
2023-03-27T01:45:26.273Z,0.70
2023-03-27T01:47:57.860Z,0.53
2023-03-27T01:50:28.730Z,0.60
2023-03-27T01:53:00.262Z,0.83
2023-03-27T01:55:31.610Z,0.67
2023-03-27T01:58:03.343Z,0.50
2023-03-27T02:00:51.936Z,0.50
2023-03-27T02:03:21.328Z,0.50
2023-03-27T02:05:52.945Z,0.50
2023-03-27T02:08:24.902Z,0.40
2023-03-27T02:10:55.899Z,0.80
2023-03-27T02:13:27.181Z,0.87
2023-03-27T02:15:56.697Z,0.83
2023-03-27T02:18:27.791Z,0.47
2023-03-27T02:20:55.962Z,0.40
2023-03-27T02:23:24.166Z,0.50
2023-03-27T02:25:54.473Z,0.60
2023-03-27T02:28:37.208Z,0.57
2023-03-27T02:31:33.061Z,0.70
2023-03-27T02:34:06.223Z,0.57
2023-03-27T02:36:40.685Z,0.67
2023-03-27T02:39:10.276Z,0.40
2023-03-27T02:41:40.121Z,0.87
2023-03-27T02:44:11.854Z,0.70
2023-03-27T02:46:44.364Z,0.50
2023-03-27T02:49:15.331Z,0.70
2023-03-27T02:51:44.690Z,0.97
2023-03-27T02:54:13.961Z,0.53
2023-03-27T02:56:44.964Z,0.50
2023-03-27T02:59:14.595Z,0.50
2023-03-27T03:01:45.708Z,0.60
2023-03-27T03:04:16.814Z,0.70
2023-03-27T03:06:45.067Z,0.40
2023-03-27T03:09:15.098Z,0.60
2023-03-27T03:11:47.472Z,0.50
2023-03-27T03:14:15.833Z,0.63
2023-03-27T03:16:45.238Z,0.70
2023-03-27T03:19:13.737Z,0.80
2023-03-27T03:21:41.708Z,0.73
2023-03-27T03:24:10.518Z,0.60
2023-03-27T03:26:38.446Z,0.70
2023-03-27T03:29:06.328Z,0.60
2023-03-27T03:31:44.728Z,0.50
2023-03-27T03:34:16.489Z,0.67
2023-03-27T03:36:49.633Z,0.73
2023-03-27T03:39:18.475Z,0.60
2023-03-27T03:41:46.506Z,0.70
2023-03-27T03:44:14.437Z,0.67
2023-03-27T03:46:42.514Z,0.80
2023-03-27T03:49:10.701Z,0.77
2023-03-27T03:51:40.218Z,0.60
2023-03-27T03:54:09.385Z,0.70
2023-03-27T03:56:41.609Z,0.90
2023-03-27T03:59:10.108Z,0.60
2023-03-27T04:01:38.063Z,0.60
2023-03-27T04:04:08.092Z,0.70
2023-03-27T04:06:37.993Z,0.93
2023-03-27T04:09:07.572Z,0.90
2023-03-27T04:11:35.840Z,1.00
2023-03-27T04:14:03.792Z,0.90
2023-03-27T04:16:31.770Z,0.90
2023-03-27T04:19:01.285Z,0.70
2023-03-27T04:21:29.221Z,0.80
2023-03-27T04:24:02.692Z,0.80
2023-03-27T04:26:33.053Z,0.90
2023-03-27T04:29:01.010Z,1.13
2023-03-27T04:31:30.499Z,0.93
2023-03-27T04:33:58.520Z,1.00
2023-03-27T04:36:27.301Z,1.07
2023-03-27T04:38:56.358Z,0.93
2023-03-27T04:41:24.337Z,1.33
2023-03-27T04:43:53.841Z,0.70
2023-03-27T04:46:21.782Z,0.90
2023-03-27T04:48:50.832Z,1.00
2023-03-27T04:51:18.775Z,1.40
2023-03-27T04:53:46.785Z,1.33
2023-03-27T04:56:15.053Z,1.80
2023-03-27T04:58:46.937Z,1.10
2023-03-27T05:01:17.453Z,0.80
2023-03-27T05:03:46.110Z,1.30
2023-03-27T05:06:14.101Z,0.90
2023-03-27T05:08:42.314Z,0.87
2023-03-27T05:11:10.970Z,0.90
2023-03-27T05:13:39.094Z,1.20
2023-03-27T05:16:09.341Z,1.17
2023-03-27T05:18:42.005Z,1.30
2023-03-27T05:21:10.892Z,1.13
2023-03-27T05:23:39.053Z,1.00
2023-03-27T05:26:06.949Z,1.33
2023-03-27T05:28:34.926Z,1.50
2023-03-27T05:31:02.954Z,1.43
2023-03-27T05:33:30.901Z,1.30
2023-03-27T05:36:00.267Z,1.60
2023-03-27T05:38:28.228Z,2.10
2023-03-27T05:40:56.613Z,2.40
2023-03-27T05:43:25.039Z,1.83
2023-03-27T05:45:53.179Z,1.77
2023-03-27T05:48:21.477Z,1.60
2023-03-27T05:50:49.566Z,1.50
2023-03-27T05:53:18.962Z,1.50
2023-03-27T05:55:46.966Z,1.50
2023-03-27T05:58:15.235Z,1.67
2023-03-27T06:00:43.383Z,1.30
2023-03-27T06:03:12.790Z,1.50
2023-03-27T06:05:41.701Z,1.83
2023-03-27T06:08:11.217Z,1.87
2023-03-27T06:10:43.496Z,1.93
2023-03-27T06:13:13.738Z,2.30
2023-03-27T06:15:43.158Z,1.77
2023-03-27T06:18:11.666Z,1.50
2023-03-27T06:20:40.342Z,1.70
2023-03-27T06:23:09.420Z,2.67
2023-03-27T06:25:39.317Z,1.63
2023-03-27T06:28:09.867Z,1.87
2023-03-27T06:30:39.040Z,1.37
2023-03-27T06:33:07.859Z,2.63
2023-03-27T06:35:36.758Z,1.40
2023-03-27T06:38:04.872Z,1.40
2023-03-27T06:40:35.481Z,1.60
2023-03-27T06:43:04.374Z,1.73
2023-03-27T06:45:34.867Z,1.77
2023-03-27T06:48:13.585Z,1.97
2023-03-27T06:50:47.831Z,1.93
2023-03-27T06:55:48.816Z,2.17
2023-03-27T06:58:19.097Z,1.60
2023-03-27T07:00:49.724Z,2.20
2023-03-27T07:03:18.194Z,2.20
2023-03-27T07:05:46.264Z,1.53
2023-03-27T07:11:00.029Z,2.10
2023-03-27T07:13:33.969Z,2.07
2023-03-27T07:16:03.514Z,2.60
2023-03-27T07:18:31.559Z,2.03
2023-03-27T07:21:00.057Z,1.77
2023-03-27T07:23:28.272Z,2.20
2023-03-27T07:25:58.463Z,1.67
2023-03-27T07:28:26.776Z,2.07
2023-03-27T07:30:54.875Z,2.17
2023-03-27T07:33:24.712Z,1.60
2023-03-27T07:35:52.765Z,1.73
2023-03-27T07:38:21.122Z,2.10
2023-03-27T07:40:50.549Z,4.27
2023-03-27T07:43:18.452Z,2.10
2023-03-27T07:45:46.371Z,1.60
2023-03-27T07:48:16.400Z,1.77
2023-03-27T07:50:46.529Z,2.00
2023-03-27T07:53:32.464Z,2.03
2023-03-27T07:56:02.602Z,1.67
2023-03-27T07:58:30.745Z,1.50
2023-03-27T08:01:02.620Z,1.70
2023-03-27T08:03:31.610Z,1.60
2023-03-27T08:06:01.619Z,1.70
2023-03-27T08:08:29.976Z,1.93
2023-03-27T08:10:58.672Z,1.50
2023-03-27T08:13:26.898Z,1.33
2023-03-27T08:16:02.870Z,2.20
2023-03-27T08:18:30.897Z,2.10
2023-03-27T08:20:59.436Z,1.50
2023-03-27T08:23:28.961Z,1.57
2023-03-27T08:26:00.934Z,1.27
2023-03-27T08:28:29.125Z,1.90
2023-03-27T08:31:02.729Z,1.63
2023-03-27T08:33:31.246Z,1.73
2023-03-27T08:35:59.582Z,1.60
2023-03-27T08:38:33.421Z,1.70
2023-03-27T08:41:01.971Z,1.90
2023-03-27T08:43:32.020Z,1.20
2023-03-27T08:46:02.488Z,1.83
2023-03-27T08:48:31.814Z,1.43
2023-03-27T08:51:00.606Z,1.20
2023-03-27T08:53:34.325Z,0.90
2023-03-27T08:56:03.470Z,1.87
2023-03-27T08:58:33.131Z,1.30
2023-03-27T09:01:02.728Z,1.73
2023-03-27T09:03:35.389Z,1.00
2023-03-27T09:06:06.672Z,1.57
2023-03-27T09:08:42.383Z,1.60
2023-03-27T09:11:15.563Z,1.50
2023-03-27T09:13:45.959Z,2.10
2023-03-27T09:16:17.369Z,2.13
2023-03-27T09:18:48.249Z,2.07
2023-03-27T09:21:19.809Z,2.43
2023-03-27T09:23:49.453Z,1.57
2023-03-27T09:26:19.666Z,1.90
2023-03-27T09:28:51.073Z,3.03
2023-03-27T09:31:26.704Z,3.10
2023-03-27T09:33:55.999Z,2.50
2023-03-27T09:36:24.709Z,2.30
2023-03-27T09:38:58.814Z,2.87
2023-03-27T09:41:28.298Z,2.10
2023-03-27T09:44:00.015Z,1.97
2023-03-27T09:46:28.689Z,2.63
2023-03-27T09:49:00.225Z,2.00
2023-03-27T09:51:38.559Z,2.60
2023-03-27T09:54:08.732Z,1.83
2023-03-27T09:56:37.774Z,2.23
2023-03-27T09:59:10.502Z,1.83
2023-03-27T10:01:38.957Z,1.80
2023-03-27T10:04:13.597Z,2.03
2023-03-27T10:06:44.970Z,1.70
2023-03-27T10:09:22.723Z,1.90
2023-03-27T10:11:50.906Z,1.70
2023-03-27T10:14:19.978Z,1.80
2023-03-27T10:16:48.385Z,1.80
2023-03-27T10:19:27.642Z,1.50
2023-03-27T10:21:56.601Z,1.40
2023-03-27T10:24:32.020Z,2.20
2023-03-27T10:27:00.705Z,1.60
2023-03-27T10:29:30.085Z,1.50
2023-03-27T10:31:59.244Z,1.80
2023-03-27T10:34:32.665Z,2.23
2023-03-27T10:37:03.436Z,3.00
2023-03-27T10:39:35.941Z,2.23
2023-03-27T10:42:06.336Z,2.50
2023-03-27T10:44:35.052Z,2.10
2023-03-27T10:47:03.085Z,3.70
2023-03-27T10:49:34.148Z,2.40
2023-03-27T10:52:08.658Z,2.87
2023-03-27T10:54:43.673Z,2.13
2023-03-27T10:57:13.933Z,2.83
2023-03-27T10:59:44.413Z,2.60
2023-03-27T11:02:14.405Z,2.63
2023-03-27T11:04:44.612Z,2.50
2023-03-27T11:07:18.200Z,2.30
2023-03-27T11:09:53.381Z,2.47
2023-03-27T11:12:22.574Z,2.20
2023-03-27T11:14:52.351Z,2.53
2023-03-27T11:17:22.702Z,2.57
2023-03-27T11:19:54.043Z,3.63
2023-03-27T11:22:24.877Z,2.33
2023-03-27T11:24:55.832Z,2.63
2023-03-27T11:27:26.910Z,2.37
2023-03-27T11:29:59.437Z,2.33
2023-03-27T11:32:30.293Z,2.73
2023-03-27T11:35:02.011Z,2.40
2023-03-27T11:37:37.521Z,2.30
2023-03-27T11:40:10.783Z,2.20
2023-03-27T11:42:40.839Z,2.60
2023-03-27T11:45:16.333Z,2.03
2023-03-27T11:48:10.825Z,1.67
2023-03-27T11:50:43.560Z,2.23
2023-03-27T11:53:19.204Z,2.63
2023-03-27T11:56:02.804Z,2.67
2023-03-27T11:58:33.394Z,1.93
2023-03-27T12:01:07.351Z,2.30
2023-03-27T12:03:44.232Z,1.87
2023-03-27T12:06:15.761Z,2.10
2023-03-27T12:09:00.429Z,1.83
2023-03-27T12:11:30.550Z,2.00
2023-03-27T12:14:20.957Z,1.77
2023-03-27T12:16:59.453Z,1.93
2023-03-27T12:19:44.686Z,1.60
2023-03-27T12:22:23.551Z,1.40
2023-03-27T12:24:59.907Z,1.80
2023-03-27T12:27:45.104Z,1.53
2023-03-27T12:30:23.022Z,1.97
2023-03-27T12:33:00.341Z,1.70
2023-03-27T12:35:30.046Z,1.73
2023-03-27T12:38:00.351Z,1.83
2023-03-27T12:40:32.181Z,1.60
2023-03-27T12:43:11.958Z,1.50
2023-03-27T12:46:00.810Z,1.23
2023-03-27T12:48:28.046Z,1.83
2023-03-27T12:50:57.432Z,1.70
2023-03-27T12:53:44.494Z,1.43
2023-03-27T12:56:37.422Z,1.50
2023-03-27T12:59:20.133Z,1.50
2023-03-27T13:01:55.941Z,1.87
2023-03-27T13:04:31.596Z,1.53
2023-03-27T13:07:05.287Z,1.47
2023-03-27T13:09:45.079Z,1.70
2023-03-27T13:12:20.669Z,1.50
2023-03-27T13:15:07.088Z,1.80
2023-03-27T13:17:46.164Z,1.67
2023-03-27T13:20:20.008Z,1.50
2023-03-27T13:22:56.947Z,1.90
2023-03-27T13:25:43.069Z,2.27
2023-03-27T13:28:28.394Z,2.10
2023-03-27T13:30:58.316Z,1.80
2023-03-27T13:33:28.144Z,2.87
2023-03-27T13:36:08.457Z,2.87
2023-03-27T13:39:09.937Z,2.00
2023-03-27T13:42:07.984Z,2.07
2023-03-27T13:44:41.212Z,1.43
2023-03-27T13:47:15.755Z,1.83
2023-03-27T13:49:57.066Z,1.40
2023-03-27T13:52:33.676Z,1.20
2023-03-27T13:55:25.478Z,1.70
2023-03-27T13:57:58.671Z,1.33
2023-03-27T14:00:37.813Z,1.57
2023-03-27T14:03:18.603Z,1.63
2023-03-27T14:06:04.525Z,1.20
2023-03-27T14:08:37.212Z,1.20
2023-03-27T14:11:12.832Z,1.27
2023-03-27T14:13:47.538Z,1.90
2023-03-27T14:16:28.243Z,1.40
2023-03-27T14:19:17.009Z,1.30
2023-03-27T14:21:53.637Z,1.23
2023-03-27T14:24:25.774Z,1.20
2023-03-27T14:26:54.483Z,1.20
2023-03-27T14:29:22.523Z,1.50
2023-03-27T14:31:51.081Z,1.37
2023-03-27T14:34:25.037Z,1.70
2023-03-27T14:36:53.218Z,1.60
2023-03-27T14:39:22.249Z,1.57
2023-03-27T14:41:53.290Z,1.80
2023-03-27T14:44:21.555Z,1.00
2023-03-27T14:46:50.279Z,1.27
2023-03-27T14:49:21.081Z,1.37
2023-03-27T14:51:54.206Z,1.37
2023-03-27T14:54:27.512Z,1.20
2023-03-27T14:56:57.332Z,1.10
2023-03-27T14:59:27.111Z,1.67
2023-03-27T15:01:56.866Z,1.70
2023-03-27T15:04:26.038Z,1.47
2023-03-27T15:07:13.262Z,1.50
2023-03-27T15:09:42.082Z,1.27
2023-03-27T15:12:11.518Z,1.70
2023-03-27T15:14:39.827Z,1.33
2023-03-27T15:17:09.762Z,1.20
2023-03-27T15:19:43.288Z,1.30
2023-03-27T15:22:15.921Z,2.03
2023-03-27T15:24:45.576Z,1.40
2023-03-27T15:27:17.918Z,1.03
2023-03-27T15:29:48.269Z,1.43
2023-03-27T15:32:18.675Z,1.60
2023-03-27T15:34:48.438Z,2.00
2023-03-27T15:37:20.013Z,1.47
2023-03-27T15:40:00.845Z,1.90
2023-03-27T15:42:34.227Z,1.07
2023-03-27T15:45:03.881Z,1.50
2023-03-27T15:47:33.363Z,1.60
2023-03-27T15:50:09.255Z,1.97
2023-03-27T15:52:38.664Z,1.40
2023-03-27T15:55:07.031Z,1.20
2023-03-27T15:57:35.051Z,1.50
2023-03-27T16:00:08.650Z,1.60
2023-03-27T16:02:37.090Z,1.67
2023-03-27T16:05:05.371Z,1.43
2023-03-27T16:07:37.375Z,1.30
2023-03-27T16:10:07.781Z,1.37
2023-03-27T16:12:49.393Z,2.67
2023-03-27T16:15:28.793Z,1.70
2023-03-27T16:17:58.231Z,1.50
2023-03-27T16:20:37.453Z,1.13
2023-03-27T16:23:06.365Z,1.50
2023-03-27T16:25:35.763Z,1.17
2023-03-27T16:28:03.900Z,2.70
2023-03-27T16:30:32.929Z,1.70
2023-03-27T16:33:01.105Z,2.63
2023-03-27T16:35:29.720Z,1.70
2023-03-27T16:37:57.941Z,1.50
2023-03-27T16:40:26.501Z,1.30
2023-03-27T16:42:55.784Z,1.23
2023-03-27T16:45:23.744Z,2.33
2023-03-27T16:47:53.398Z,1.63
2023-03-27T16:50:22.850Z,2.20
2023-03-27T16:52:50.962Z,1.70
2023-03-27T16:55:18.937Z,1.60
2023-03-27T16:57:47.339Z,1.60
2023-03-27T17:00:18.760Z,1.20
2023-03-27T17:02:47.240Z,1.50
2023-03-27T17:05:15.862Z,1.50
2023-03-27T17:07:45.154Z,2.50
2023-03-27T17:10:13.284Z,2.37
2023-03-27T17:12:41.247Z,1.80
2023-03-27T17:15:09.871Z,2.63
2023-03-27T17:17:39.232Z,1.90
2023-03-27T17:20:09.387Z,2.77
2023-03-27T17:22:37.326Z,1.97
2023-03-27T17:25:06.221Z,1.67
2023-03-27T17:27:34.640Z,1.57
2023-03-27T17:30:02.608Z,1.50
2023-03-27T17:32:30.904Z,1.60
2023-03-27T17:35:00.272Z,2.00
2023-03-27T17:37:28.466Z,1.63
2023-03-27T17:39:56.386Z,1.63
2023-03-27T17:42:24.412Z,1.50
2023-03-27T17:44:52.328Z,1.60
2023-03-27T17:47:20.193Z,2.60
2023-03-27T17:49:48.261Z,2.70
2023-03-27T17:52:18.287Z,2.23
2023-03-27T17:54:46.296Z,2.60
2023-03-27T17:57:14.299Z,3.37
2023-03-27T17:59:42.248Z,2.43
2023-03-27T18:02:15.900Z,2.40
2023-03-27T18:04:43.781Z,2.17
2023-03-27T18:07:11.763Z,2.10
2023-03-27T18:09:41.154Z,3.00
2023-03-27T18:12:09.200Z,2.07
2023-03-27T18:14:37.537Z,2.20
2023-03-27T18:17:05.694Z,1.70
2023-03-27T18:19:58.249Z,1.87
2023-03-27T18:22:26.217Z,2.20
2023-03-27T18:24:55.540Z,2.10
2023-03-27T18:27:23.444Z,2.10
2023-03-27T18:29:51.400Z,1.93
2023-03-27T18:32:19.381Z,2.00
2023-03-27T18:34:47.374Z,1.30
2023-03-27T18:37:15.727Z,2.17
2023-03-27T18:39:43.643Z,2.40
2023-03-27T18:42:13.045Z,2.53
2023-03-27T18:44:41.742Z,1.90
2023-03-27T18:47:09.885Z,1.87
2023-03-27T18:49:39.104Z,2.20
2023-03-27T18:52:06.976Z,2.40
2023-03-27T18:54:34.968Z,2.50
2023-03-27T18:57:03.168Z,3.40
2023-03-27T18:59:32.656Z,3.10
2023-03-27T19:02:00.695Z,2.43
2023-03-27T19:04:28.757Z,2.63
2023-03-27T19:06:57.090Z,2.40
2023-03-27T19:09:38.151Z,2.50
2023-03-27T19:12:09.095Z,2.30
2023-03-27T19:14:38.556Z,2.60
2023-03-27T19:17:06.740Z,2.63
2023-03-27T19:19:34.711Z,2.03
2023-03-27T19:22:02.589Z,2.20
2023-03-27T19:24:30.546Z,2.20
2023-03-27T19:26:58.499Z,2.67
2023-03-27T19:29:26.434Z,2.23
2023-03-27T19:31:55.873Z,2.87
2023-03-27T19:34:36.428Z,2.23
2023-03-27T19:37:10.141Z,2.13
2023-03-27T19:39:38.165Z,2.20
2023-03-27T19:42:06.371Z,2.10
2023-03-27T19:44:34.351Z,2.50
2023-03-27T19:47:03.850Z,2.30
2023-03-27T19:49:31.939Z,2.20
2023-03-27T19:51:59.919Z,2.30
2023-03-27T19:54:30.036Z,2.00
2023-03-27T19:57:05.191Z,1.97
2023-03-27T19:59:33.304Z,2.73
2023-03-27T20:02:01.354Z,2.03
2023-03-27T20:04:35.981Z,2.20
2023-03-27T20:07:07.131Z,2.37
2023-03-27T20:09:35.705Z,2.37
2023-03-27T20:12:03.986Z,2.00
2023-03-27T20:14:31.938Z,1.93
2023-03-27T20:16:59.950Z,2.20
2023-03-27T20:19:30.683Z,2.13
2023-03-27T20:22:00.168Z,2.07
2023-03-27T20:24:29.035Z,2.40
2023-03-27T20:26:57.321Z,2.90
2023-03-27T20:29:26.212Z,2.40
2023-03-27T20:31:54.260Z,2.63
2023-03-27T20:34:22.901Z,2.43
2023-03-27T20:36:53.392Z,2.77
2023-03-27T20:39:27.842Z,2.73
2023-03-27T20:41:59.090Z,2.83
2023-03-27T20:44:35.309Z,2.40
2023-03-27T20:47:11.127Z,2.70
2023-03-27T20:49:41.667Z,2.73
2023-03-27T20:52:10.594Z,2.40
2023-03-27T20:54:40.166Z,3.20
2023-03-27T20:57:08.353Z,3.87
2023-03-27T20:59:36.528Z,2.73
2023-03-27T21:02:05.302Z,2.87
2023-03-27T21:04:33.375Z,3.47
2023-03-27T21:07:01.329Z,2.60
2023-03-27T21:09:29.274Z,2.57
2023-03-27T21:11:58.650Z,2.60
2023-03-27T21:14:26.595Z,3.10
2023-03-27T21:16:54.634Z,3.10
2023-03-27T21:19:22.836Z,3.23
2023-03-27T21:21:50.832Z,2.73
2023-03-27T21:24:19.637Z,3.03
2023-03-27T21:26:47.721Z,2.90
2023-03-27T21:29:21.065Z,3.20
2023-03-27T21:31:49.165Z,2.60
2023-03-27T21:34:17.126Z,3.07
2023-03-27T21:36:45.124Z,2.53
2023-03-27T21:39:13.128Z,2.97
2023-03-27T21:41:41.172Z,3.10
2023-03-27T21:44:09.122Z,2.93
2023-03-27T21:46:38.572Z,2.80
2023-03-27T21:49:06.520Z,2.80
2023-03-27T21:51:34.457Z,2.80
2023-03-27T21:54:02.442Z,2.80
2023-03-27T21:56:30.547Z,2.93
2023-03-27T21:58:58.744Z,5.33
2023-03-27T22:01:26.684Z,4.10
2023-03-27T22:03:59.668Z,3.73
2023-03-27T22:06:28.977Z,4.07
2023-03-27T22:08:57.240Z,4.30
2023-03-27T22:11:25.215Z,3.40
2023-03-27T22:13:53.223Z,3.90
2023-03-27T22:16:21.237Z,3.63
2023-03-27T22:18:50.439Z,3.97
2023-03-27T22:21:22.259Z,3.73
2023-03-27T22:23:51.061Z,3.43
2023-03-27T22:26:19.291Z,3.77
2023-03-27T22:28:47.318Z,3.20
2023-03-27T22:31:15.498Z,3.27
2023-03-27T22:33:43.431Z,3.40
2023-03-27T22:36:12.218Z,3.87
2023-03-27T22:38:42.120Z,3.27
2023-03-27T22:41:11.491Z,3.17
2023-03-27T22:43:39.675Z,3.07
2023-03-27T22:46:08.548Z,3.20
2023-03-27T22:48:36.796Z,3.33
2023-03-27T22:51:04.938Z,4.07
2023-03-27T22:53:33.606Z,3.50
2023-03-27T22:56:03.481Z,4.27
2023-03-27T22:58:31.786Z,3.10
2023-03-27T23:00:59.946Z,3.90
2023-03-27T23:03:28.490Z,4.13
2023-03-27T23:05:57.101Z,3.87
2023-03-27T23:08:28.803Z,3.40
2023-03-27T23:10:57.460Z,3.30
2023-03-27T23:13:27.276Z,3.87
2023-03-27T23:15:55.684Z,3.40
2023-03-27T23:18:25.466Z,3.70
2023-03-27T23:20:56.745Z,3.27
2023-03-27T23:23:24.756Z,3.70
2023-03-27T23:25:52.715Z,3.87
2023-03-27T23:28:20.910Z,3.60
2023-03-27T23:30:56.942Z,3.27
2023-03-27T23:33:25.311Z,3.27
2023-03-27T23:35:54.033Z,3.30
2023-03-27T23:38:22.108Z,3.27
2023-03-27T23:40:55.276Z,3.63
2023-03-27T23:43:23.222Z,3.50
2023-03-27T23:45:51.239Z,4.03
2023-03-27T23:48:20.684Z,3.37
2023-03-27T23:50:48.848Z,3.40
2023-03-27T23:53:17.165Z,3.50
2023-03-27T23:55:45.254Z,3.33
2023-03-27T23:58:13.239Z,3.17
